PORTS® Data Listing: 8639348 Money Point, VA

CO-OPS RAW PORTS DATA

************************      PRELIMINARY DATA      ************************** 

     THIS RAW DATA HAS NOT BEEN SUBJECT TO THE NATIONAL OCEAN SERVICE'S        
     QUALITY CONTROL OR QUALITY ASSURANCE PROCEDURES AND DOES NOT MEET         
     THE CRITERIA AND STANDARDS OF OFFICIAL NATIONAL OCEAN SERVICE             
     DATA.  IT IS RELEASED FOR LIMITED PUBLIC USE AS PRELIMINARY DATA TO       
     BE USED ONLY WITH APPROPRIATE CAUTION.                                    

************************      PRELIMINARY DATA      ************************** 


       CD   -   Calendar date
       T    -   Time
       TZ   -   Timezone
       PW   -   Predicted water level (feet above MLLW)
       OW   -   Observed water level (feet above MLLW)
       WS   -   Wind speed (knots)
       WD   -   Wind direction (degrees true)
       WG   -   Wind gust (knots)
       AT   -   Air temperature (degrees farenheit)
       WT   -   Water temperature (degrees farenheit)
       AP   -   Air pressure (millibars)
       SA   -   Salinty (PSU - Practical Salinity Units)
       SG   -   Specific gravity
       RH   -   Relative humidity
       AG   -   Air gap (feet)
       VI   -   Visibility (nautical miles)

       ** NOTE **
       A variable that has its data fields filled with "9"s, indicates that
       data was not collected for that sample period.
       **********


STATION NAME: Money Point (8639348)
****************************************************************************************************
    CD       T    TZ    PW     OW    WS   WD   WG    AT    WT    AP    SA    SG     RH    AG   VI
****************************************************************************************************
2020/01/18 05:12 EST    2.29   2.63    1    5    1  35.1  51.3 1036.4 18.5  1.015 -99.9 -99.99 -9.99
2020/01/18 05:18 EST    2.25   2.60    2   23    2  34.9  51.3 1036.4 18.6  1.015 -99.9 -99.99 -9.99
2020/01/18 05:24 EST    2.19   2.57    1    6    2  34.9  51.3 1036.3 18.3  1.015 -99.9 -99.99 -9.99
2020/01/18 05:30 EST    2.14   2.53    2   39    2  35.1  51.3 1036.3 18.6  1.015 -99.9 -99.99 -9.99
2020/01/18 05:36 EST    2.09   2.49    2   46    2  35.2  51.3 1036.2 18.5  1.015 -99.9 -99.99 -9.99
2020/01/18 05:42 EST    2.03   2.45    1   32    3  35.2  51.3 1036.1 18.6  1.015 -99.9 -99.99 -9.99
2020/01/18 05:48 EST    1.97   2.41    3   18    4  35.2  51.3 1036.0 18.7  1.015 -99.9 -99.99 -9.99
2020/01/18 05:54 EST    1.92   2.36    2   14    3  35.1  51.3 1035.9 18.6  1.015 -99.9 -99.99 -9.99
2020/01/18 06:00 EST    1.86   2.31    3   32    4  35.2  51.1 1035.9 18.4  1.015 -99.9 -99.99 -9.99
2020/01/18 06:06 EST    1.80   2.26    2   67    4  35.4  51.1 1035.9 18.5  1.015 -99.9 -99.99 -9.99
2020/01/18 06:12 EST    1.73   2.21    2   50    3  35.4  51.1 1035.9 18.6  1.015 -99.9 -99.99 -9.99
2020/01/18 06:18 EST    1.67   2.16    1  101    3  35.4  51.1 1035.8 18.6  1.015 -99.9 -99.99 -9.99
2020/01/18 06:24 EST    1.61   2.09    2   89    4  35.4  51.1 1035.9 18.7  1.015 -99.9 -99.99 -9.99
2020/01/18 06:30 EST    1.54   2.03    2   97    2  35.4  51.1 1036.1 18.6  1.015 -99.9 -99.99 -9.99
2020/01/18 06:36 EST    1.48   1.96    3   97    4  35.4  51.1 1036.1 18.7  1.015 -99.9 -99.99 -9.99
2020/01/18 06:42 EST    1.41   1.89    2   96    5  35.2  51.1 1036.1 18.7  1.015 -99.9 -99.99 -9.99
2020/01/18 06:48 EST    1.34   1.83    2   93    3  35.4  51.1 1036.1 18.6  1.015 -99.9 -99.99 -9.99
2020/01/18 06:54 EST    1.28   1.75    3  110    4  35.8  51.1 1036.0 18.4  1.015 -99.9 -99.99 -9.99
2020/01/18 07:00 EST    1.21   1.68    4  120    5  35.8  51.1 1035.6 18.5  1.015 -99.9 -99.99 -9.99
2020/01/18 07:06 EST    1.14   1.61    4  125    5  35.6  51.1 1035.6 18.7  1.015 -99.9 -99.99 -9.99
2020/01/18 07:12 EST    1.07   1.54    2  113    5  36.0  51.1 1035.6 18.4  1.015 -99.9 -99.99 -9.99
2020/01/18 07:18 EST    1.00   1.46    4  127    5  36.0  51.1 1035.5 18.5  1.015 -99.9 -99.99 -9.99
2020/01/18 07:24 EST    0.94   1.39    4  146    5  36.1  51.1 1035.3 18.5  1.015 -99.9 -99.99 -9.99
2020/01/18 07:30 EST    0.87   1.34    4  131    5  36.1  51.1 1035.3 18.2  1.015 -99.9 -99.99 -9.99
2020/01/18 07:36 EST    0.80   1.27    4  131    5  36.1  51.1 1035.3 17.8  1.014 -99.9 -99.99 -9.99
2020/01/18 07:42 EST    0.74   1.21    4  123    4  36.3  50.9 1035.2 17.5  1.014 -99.9 -99.99 -9.99
2020/01/18 07:48 EST    0.67   1.16    2   86    5  36.5  50.7 1035.2 17.4  1.014 -99.9 -99.99 -9.99
2020/01/18 07:54 EST    0.61   1.10    2   96    3  36.5  50.5 1035.1 17.0  1.014 -99.9 -99.99 -9.99
2020/01/18 08:00 EST    0.55   1.05    3   83    4  36.5  50.4 1035.1 16.8  1.014 -99.9 -99.99 -9.99
2020/01/18 08:06 EST    0.49   0.98    3   87    4  36.5  50.5 1034.9 17.0  1.014 -99.9 -99.99 -9.99
2020/01/18 08:12 EST    0.43   0.93    1   87    3  36.7  50.0 1035.0 16.3  1.013 -99.9 -99.99 -9.99
2020/01/18 08:18 EST    0.38   0.88    2   95    2  36.7  50.4 1035.0 16.6  1.013 -99.9 -99.99 -9.99
2020/01/18 08:24 EST    0.32   0.84    2  118    3  37.0  50.0 1034.9 16.1  1.013 -99.9 -99.99 -9.99
2020/01/18 08:30 EST    0.27   0.78    1  144    2  37.0  50.4 1034.9 16.7  1.014 -99.9 -99.99 -9.99
2020/01/18 08:36 EST    0.22   0.74    2  194    3  37.2  50.4 1035.1 16.4  1.013 -99.9 -99.99 -9.99
2020/01/18 08:42 EST    0.18   0.70    3  128    4  37.2  50.0 1034.8 16.2  1.013 -99.9 -99.99 -9.99
2020/01/18 08:48 EST    0.14   0.67    4  128    5  37.4  50.4 1034.5 16.7  1.014 -99.9 -99.99 -9.99
2020/01/18 08:54 EST    0.10   0.65    4  139    6  37.4  50.4 1034.5 16.5  1.013 -99.9 -99.99 -9.99
2020/01/18 09:00 EST    0.06   0.62    4  154    6  37.6  50.0 1034.3 16.0  1.013 -99.9 -99.99 -9.99
2020/01/18 09:06 EST    0.03   0.60    5  147    7  37.9  50.2 1034.3 16.3  1.013 -99.9 -99.99 -9.99
2020/01/18 09:12 EST    0.00   0.59    5  146    7  38.1  50.0 1034.1 15.9  1.013 -99.9 -99.99 -9.99
2020/01/18 09:18 EST   -0.02   0.58    4  146    7  38.3  50.2 1034.0 16.1  1.013 -99.9 -99.99 -9.99
2020/01/18 09:24 EST   -0.04   0.57    4  145    7  38.3  50.4 1034.1 16.2  1.013 -99.9 -99.99 -9.99
2020/01/18 09:30 EST   -0.06   0.56    5  167    6  38.5  50.4 1034.1 16.2  1.013 -99.9 -99.99 -9.99
2020/01/18 09:36 EST   -0.07   0.56    3  162    5  38.5  50.5 1034.1 16.5  1.013 -99.9 -99.99 -9.99
2020/01/18 09:42 EST   -0.08   0.55    5  166    7  38.5  50.5 1033.9 16.3  1.013 -99.9 -99.99 -9.99
2020/01/18 09:48 EST   -0.08   0.55    7  148    8  38.7  50.5 1033.8 16.4  1.013 -99.9 -99.99 -9.99
2020/01/18 09:54 EST   -0.08   0.55    5  170    8  38.8  50.4 1033.8 16.0  1.013 -99.9 -99.99 -9.99
2020/01/18 10:00 EST   -0.08   0.56    6  158    7  39.0  50.5 1033.6 15.8  1.013 -99.9 -99.99 -9.99
2020/01/18 10:06 EST   -0.08   0.57    6  157    8  39.2  50.5 1033.6 16.1  1.013 -99.9 -99.99 -9.99
2020/01/18 10:12 EST   -0.07   0.58    7  152    9  39.4  50.5 1033.5 16.1  1.013 -99.9 -99.99 -9.99
2020/01/18 10:18 EST   -0.05   0.60    6  171    8  39.7  50.5 1033.5 16.0  1.013 -99.9 -99.99 -9.99
2020/01/18 10:24 EST   -0.03   0.62    7  164    9  39.9  50.5 1033.4 16.0  1.013 -99.9 -99.99 -9.99
2020/01/18 10:30 EST   -0.01   0.66    6  171    8  39.7  50.5 1033.6 16.0  1.013 -99.9 -99.99 -9.99
2020/01/18 10:36 EST    0.01   0.70    5  155    8  39.9  50.7 1033.5 16.2  1.013 -99.9 -99.99 -9.99
2020/01/18 10:42 EST    0.04   0.74    7  158    9  40.1  50.7 1033.4 16.4  1.013 -99.9 -99.99 -9.99
2020/01/18 10:48 EST    0.07   0.76    6  157    8  40.3  50.7 1033.1 16.5  1.013 -99.9 -99.99 -9.99
2020/01/18 10:54 EST    0.10   0.80    6  159    8  40.3  50.7 1032.8 16.3  1.013 -99.9 -99.99 -9.99
2020/01/18 11:00 EST    0.14   0.83    6  158    8  40.5  50.7 1032.6 16.2  1.013 -99.9 -99.99 -9.99
2020/01/18 11:06 EST    0.18   0.86    8  163   10  40.6  50.7 1032.4 16.4  1.013 -99.9 -99.99 -9.99
2020/01/18 11:12 EST    0.22   0.89    7  166    9  40.6  50.9 1032.1 16.7  1.014 -99.9 -99.99 -9.99
2020/01/18 11:18 EST    0.26   0.93    6  156   10  40.8  50.7 1031.9 16.2  1.013 -99.9 -99.99 -9.99
2020/01/18 11:24 EST    0.31   0.97    7  155    9  40.8  50.7 1031.8 16.2  1.013 -99.9 -99.99 -9.99
2020/01/18 11:30 EST    0.36   1.01    6  179    9  41.0  50.9 1031.7 17.0  1.014 -99.9 -99.99 -9.99
2020/01/18 11:36 EST    0.41   1.05    7  176    9  41.0  50.9 1031.5 17.1  1.014 -99.9 -99.99 -9.99
2020/01/18 11:42 EST    0.46   1.11    5  176    9  41.2  50.9 1031.3 16.2  1.013 -99.9 -99.99 -9.99
2020/01/18 11:48 EST    0.52   1.17    5  166    9  41.5  50.9 1030.9 17.1  1.014 -99.9 -99.99 -9.99
2020/01/18 11:54 EST    0.57   1.22    6  164    8  41.2  50.9 1030.7 17.3  1.014 -99.9 -99.99 -9.99
2020/01/18 12:00 EST    0.63   1.29    7  162    9  41.2  50.9 1030.6 17.4  1.014 -99.9 -99.99 -9.99
2020/01/18 12:06 EST    0.69   1.35    5  181    8  41.4  50.9 1030.4 17.3  1.014 -99.9 -99.99 -9.99
2020/01/18 12:12 EST    0.75   1.41    6  165   11  41.5  50.9 1030.1 17.2  1.014 -99.9 -99.99 -9.99
2020/01/18 12:18 EST    0.82   1.46    8  161   11  41.4  50.9 1029.6 17.0  1.014 -99.9 -99.99 -9.99
2020/01/18 12:24 EST    0.88   1.52    9  166   11  41.7  50.7 1029.3 17.0  1.014 -99.9 -99.99 -9.99
2020/01/18 12:30 EST    0.95   1.57    7  164   10  42.1  50.7 1029.2 17.1  1.014 -99.9 -99.99 -9.99
2020/01/18 12:36 EST    1.01   1.61    7  167   10  42.6  50.7 1028.9 17.0  1.014 -99.9 -99.99 -9.99
2020/01/18 12:42 EST    1.08   1.66    9  156   11  42.4  50.7 1028.7 17.2  1.014 -99.9 -99.99 -9.99
2020/01/18 12:48 EST    1.14   1.71    5  174   11  42.8  50.7 1028.6 17.1  1.014 -99.9 -99.99 -9.99
2020/01/18 12:54 EST    1.21   1.75    5  191    9  43.0  50.7 1028.5 17.0  1.014 -99.9 -99.99 -9.99
2020/01/18 13:00 EST    1.28   1.80    7  165    9  43.2  50.7 1028.2 17.0  1.014 -99.9 -99.99 -9.99
2020/01/18 13:06 EST    1.34   1.86    7  165   10  43.3  50.7 1027.9 17.2  1.014 -99.9 -99.99 -9.99
2020/01/18 13:12 EST    1.41   1.92    6  181    9  43.7  50.7 1027.7 17.2  1.014 -99.9 -99.99 -9.99
2020/01/18 13:18 EST    1.48   1.99    5  201   10  44.1  50.7 1027.5 17.2  1.014 -99.9 -99.99 -9.99
2020/01/18 13:24 EST    1.54   2.05    6  202    8  44.2  50.7 1027.4 17.4  1.014 -99.9 -99.99 -9.99
2020/01/18 13:30 EST    1.61   2.11    7  167   11  44.4  50.7 1027.1 17.6  1.014 -99.9 -99.99 -9.99
2020/01/18 13:36 EST    1.67   2.19    8  169   10  44.6  50.9 1026.8 18.1  1.015 -99.9 -99.99 -9.99
2020/01/18 13:42 EST    1.73   2.25    9  169   12  44.8  50.9 1026.6 18.4  1.015 -99.9 -99.99 -9.99
2020/01/18 13:48 EST    1.79   2.30    8  176   11  45.1  51.1 1026.4 18.4  1.015 -99.9 -99.99 -9.99
2020/01/18 13:54 EST    1.85   2.35    7  190   11  45.5  50.9 1026.0 18.3  1.015 -99.9 -99.99 -9.99
2020/01/18 14:00 EST    1.91   2.41 -999 -999 -999 -99.9 -99.9 -999.9 -9.9 -9.999 -99.9 -99.99 -9.99
2020/01/18 14:06 EST    1.96   2.45    9  157   11  45.7  50.9 1025.4 18.4  1.015 -99.9 -99.99 -9.99
2020/01/18 14:12 EST    2.01   2.48    8  162   12  45.7  50.9 1025.2 18.4  1.015 -99.9 -99.99 -9.99
2020/01/18 14:18 EST    2.06   2.52    9  161   12  45.9  51.1 1025.2 18.5  1.015 -99.9 -99.99 -9.99
2020/01/18 14:24 EST    2.11   2.56    8  169   10  45.9  51.1 1025.2 18.4  1.015 -99.9 -99.99 -9.99
2020/01/18 14:30 EST    2.15   2.59    9  168   12  45.9  50.9 1024.9 18.4  1.015 -99.9 -99.99 -9.99
2020/01/18 14:36 EST    2.19   2.62    5  167   12  45.9  50.9 1024.8 18.5  1.015 -99.9 -99.99 -9.99
2020/01/18 14:42 EST    2.22   2.64    8  170   11  46.0  51.1 1024.4 18.7  1.015 -99.9 -99.99 -9.99
2020/01/18 14:48 EST    2.26   2.68    7  161   10  46.2  51.1 1024.2 18.7  1.015 -99.9 -99.99 -9.99
2020/01/18 14:54 EST    2.29   2.70    8  168   12  46.6  51.1 1024.1 18.8  1.015 -99.9 -99.99 -9.99
2020/01/18 15:00 EST    2.31   2.72    7  182   11  46.8  51.1 1024.0 18.9  1.015 -99.9 -99.99 -9.99
2020/01/18 15:06 EST    2.34   2.73    8  184   11  46.8  51.1 1024.0 18.9  1.015 -99.9 -99.99 -9.99
2020/01/18 15:12 EST    2.35   2.75    8  180   16  46.8  51.1 1024.1 18.9  1.015 -99.9 -99.99 -9.99
2020/01/18 15:18 EST    2.37   2.75    6  164   10  47.1  51.1 1023.8 18.8  1.015 -99.9 -99.99 -9.99
2020/01/18 15:24 EST    2.38   2.77    7  171    9  47.3  51.1 1023.7 18.6  1.015 -99.9 -99.99 -9.99
2020/01/18 15:30 EST    2.39   2.76    8  171   12  47.5  51.1 1023.5 19.1  1.015 -99.9 -99.99 -9.99
2020/01/18 15:36 EST    2.39   2.76    9  180   13  47.8  51.1 1023.3 18.9  1.015 -99.9 -99.99 -9.99
2020/01/18 15:42 EST    2.39   2.75    8  192   11  47.8  51.1 1023.2 19.0  1.015 -99.9 -99.99 -9.99
2020/01/18 15:48 EST    2.39   2.75    6  187   11  48.0  51.3 1023.1 19.3  1.015 -99.9 -99.99 -9.99
2020/01/18 15:54 EST    2.38   2.74    7  182   11  48.2  51.3 1022.8 19.1  1.015 -99.9 -99.99 -9.99
2020/01/18 16:00 EST    2.37   2.72    9  179   15  48.0  51.3 1022.7 19.2  1.015 -99.9 -99.99 -9.99
2020/01/18 16:06 EST    2.36   2.70    9  173   13  48.2  51.3 1022.5 19.2  1.015 -99.9 -99.99 -9.99
2020/01/18 16:12 EST    2.34   2.70    9  170   13  48.2  51.3 1022.2 19.0  1.015 -99.9 -99.99 -9.99
2020/01/18 16:18 EST    2.32   2.69    8  173   13  48.2  51.3 1021.9 19.3  1.016 -99.9 -99.99 -9.99
2020/01/18 16:24 EST    2.30   2.67    7  169   11  48.4  51.3 1021.7 19.0  1.015 -99.9 -99.99 -9.99
2020/01/18 16:30 EST    2.28   2.65    6  174   12  48.4  51.3 1021.4 19.2  1.015 -99.9 -99.99 -9.99
2020/01/18 16:36 EST    2.25   2.63    7  166   10  48.6  51.3 1021.2 19.2  1.015 -99.9 -99.99 -9.99
2020/01/18 16:42 EST    2.22   2.60    5  176   12  48.6  51.3 1021.1 19.0  1.015 -99.9 -99.99 -9.99
2020/01/18 16:48 EST    2.18   2.57    8  182   13  48.7  51.1 1021.0 19.0  1.015 -99.9 -99.99 -9.99
2020/01/18 16:54 EST    2.15   2.54    8  185   10  48.7  51.1 1021.0 18.9  1.015 -99.9 -99.99 -9.99
2020/01/18 17:00 EST    2.11   2.52    6  192    9  48.9  51.1 1021.0 18.6  1.015 -99.9 -99.99 -9.99
2020/01/18 17:06 EST    2.07   2.49    6  195   10  48.9  51.1 1020.9 18.6  1.015 -99.9 -99.99 -9.99
2020/01/18 17:12 EST    2.03   2.45    7  190   10  48.9  51.1 1020.7 18.7  1.015 -99.9 -99.99 -9.99
2020/01/18 17:18 EST    1.99   2.43    6  181   11  48.9  51.1 1020.6 18.9  1.015 -99.9 -99.99 -9.99
2020/01/18 17:24 EST    1.95   2.39    8  179   12  48.9  51.1 1020.5 18.7  1.015 -99.9 -99.99 -9.99
2020/01/18 17:30 EST    1.90   2.35    8  182   12  48.9  51.1 1020.3 18.9  1.015 -99.9 -99.99 -9.99
2020/01/18 17:36 EST    1.85   2.31    8  189   12  48.9  51.3 1020.4 18.9  1.015 -99.9 -99.99 -9.99
2020/01/18 17:42 EST    1.80   2.27    5  194   11  49.1  51.3 1020.3 18.9  1.015 -99.9 -99.99 -9.99
2020/01/18 17:48 EST    1.75   2.24    6  206   11  49.1  51.3 1020.4 18.9  1.015 -99.9 -99.99 -9.99
2020/01/18 17:54 EST    1.70   2.22    6  200    9  49.1  51.1 1020.2 18.8  1.015 -99.9 -99.99 -9.99
2020/01/18 18:00 EST    1.65   2.19    7  193   11  49.1  51.1 1020.1 18.5  1.015 -99.9 -99.99 -9.99
2020/01/18 18:06 EST    1.59   2.17    5  198   11  49.1  51.1 1019.9 18.4  1.015 -99.9 -99.99 -9.99
2020/01/18 18:12 EST    1.54   2.14    6  201   10  48.9  51.1 1019.8 18.4  1.015 -99.9 -99.99 -9.99
2020/01/18 18:18 EST    1.48   2.12    6  202   11  48.7  51.1 1019.8 18.5  1.015 -99.9 -99.99 -9.99
2020/01/18 18:24 EST    1.42   2.10    5  211    7  48.7  51.1 1019.8 18.5  1.015 -99.9 -99.99 -9.99
2020/01/18 18:30 EST    1.36   2.07    5  199    8  48.6  51.1 1019.5 18.5  1.015 -99.9 -99.99 -9.99
2020/01/18 18:36 EST    1.30   2.05    5  213    8  48.7  51.1 1019.5 18.5  1.015 -99.9 -99.99 -9.99
2020/01/18 18:42 EST    1.24   2.01    4  212    8  48.7  51.1 1019.7 18.3  1.015 -99.9 -99.99 -9.99
2020/01/18 18:48 EST    1.18   1.98    5  194    8  48.9  51.1 1019.3 18.3  1.015 -99.9 -99.99 -9.99
2020/01/18 18:54 EST    1.12   1.94    7  188   10  49.1  51.1 1019.0 18.0  1.015 -99.9 -99.99 -9.99
2020/01/18 19:00 EST    1.06   1.89    8  202   13  49.5  51.1 1018.9 18.1  1.015 -99.9 -99.99 -9.99
2020/01/18 19:06 EST    0.99   1.85    7  206   11  49.6  51.1 1018.7 18.0  1.015 -99.9 -99.99 -9.99
2020/01/18 19:12 EST    0.93   1.81    6  200   12  49.8  51.1 1018.6 18.1  1.015 -99.9 -99.99 -9.99
2020/01/18 19:18 EST    0.87   1.78    5  203   11  49.8  51.1 1018.6 18.2  1.015 -99.9 -99.99 -9.99
2020/01/18 19:24 EST    0.80   1.73    9  204   12  50.2  51.1 1018.4 18.1  1.015 -99.9 -99.99 -9.99
2020/01/18 19:30 EST    0.74   1.69    7  205   11  50.4  51.1 1018.2 18.3  1.015 -99.9 -99.99 -9.99
2020/01/18 19:36 EST    0.67   1.64    6  209   12  50.5  51.1 1018.2 18.3  1.015 -99.9 -99.99 -9.99
2020/01/18 19:42 EST    0.61   1.60    9  210   13  50.7  51.1 1018.2 18.3  1.015 -99.9 -99.99 -9.99
2020/01/18 19:48 EST    0.55   1.56    7  202   13  50.9  51.1 1017.8 18.3  1.015 -99.9 -99.99 -9.99
2020/01/18 19:54 EST    0.49   1.51    7  200   11  50.9  51.1 1017.5 18.2  1.015 -99.9 -99.99 -9.99
2020/01/18 20:00 EST    0.42   1.46    9  200   14  51.1  51.1 1017.4 18.2  1.015 -99.9 -99.99 -9.99
2020/01/18 20:06 EST    0.36   1.41    7  195   11  51.1  51.1 1017.1 17.9  1.014 -99.9 -99.99 -9.99
2020/01/18 20:12 EST    0.30   1.34    7  199   12  51.3  51.1 1017.0 18.2  1.015 -99.9 -99.99 -9.99
2020/01/18 20:18 EST    0.25   1.28    7  203   12  51.3  51.1 1016.8 18.2  1.015 -99.9 -99.99 -9.99
2020/01/18 20:24 EST    0.19   1.21    8  208   13  51.4  51.1 1016.8 18.3  1.015 -99.9 -99.99 -9.99
2020/01/18 20:30 EST    0.14   1.17    8  205   14  51.8  50.9 1016.7 17.6  1.014 -99.9 -99.99 -9.99
2020/01/18 20:36 EST    0.09   1.13    6  216   14  51.8  50.9 1016.6 17.6  1.014 -99.9 -99.99 -9.99
2020/01/18 20:42 EST    0.04   1.08    7  217   10  52.2  50.7 1016.5 16.9  1.014 -99.9 -99.99 -9.99
2020/01/18 20:48 EST   -0.01   1.02    8  208   12  52.3  50.9 1016.4 17.1  1.014 -99.9 -99.99 -9.99
2020/01/18 20:54 EST   -0.05   0.98    8  216   12  52.7  50.9 1016.3 17.1  1.014 -99.9 -99.99 -9.99
2020/01/18 21:00 EST   -0.10   0.95    6  214   12  52.9  50.7 1016.3 15.8  1.013 -99.9 -99.99 -9.99
2020/01/18 21:06 EST   -0.13   0.91    8  231   12  53.1  50.9 1016.3 17.3  1.014 -99.9 -99.99 -9.99
2020/01/18 21:12 EST   -0.17   0.87    9  210   13  53.2  50.7 1016.0 16.5  1.013 -99.9 -99.99 -9.99
2020/01/18 21:18 EST   -0.20   0.83    8  213   11  53.4  50.7 1015.8 16.8  1.014 -99.9 -99.99 -9.99
2020/01/18 21:24 EST   -0.22   0.79    8  225   13  53.4  50.7 1015.7 16.2  1.013 -99.9 -99.99 -9.99
2020/01/18 21:30 EST   -0.25   0.76    7  230   16  53.6  50.5 1015.8 15.7  1.013 -99.9 -99.99 -9.99
2020/01/18 21:36 EST   -0.27   0.73    7  227   11  53.8  50.7 1015.7 16.5  1.013 -99.9 -99.99 -9.99
2020/01/18 21:42 EST   -0.28   0.71    7  239   12  53.8  50.7 1015.7 16.5  1.013 -99.9 -99.99 -9.99
2020/01/18 21:48 EST   -0.29   0.71    8  244   12  53.8  50.4 1015.9 14.4  1.012 -99.9 -99.99 -9.99
2020/01/18 21:54 EST   -0.30   0.69    8  243   15  53.4  50.5 1015.9 15.2  1.012 -99.9 -99.99 -9.99
2020/01/18 22:00 EST   -0.31   0.69    9  246   12  53.1  50.5 1015.7 15.7  1.013 -99.9 -99.99 -9.99
2020/01/18 22:06 EST   -0.31   0.69    8  238   12  52.9  50.4 1015.6 14.9  1.012 -99.9 -99.99 -9.99
2020/01/18 22:12 EST   -0.30   0.70    7  228   12  52.9  50.5 1015.5 15.6  1.013 -99.9 -99.99 -9.99
2020/01/18 22:18 EST   -0.29   0.70    9  225   12  52.7  50.5 1015.3 15.9  1.013 -99.9 -99.99 -9.99
2020/01/18 22:24 EST   -0.28   0.71    7  223   11  52.7  50.5 1015.2 15.4  1.013 -99.9 -99.99 -9.99
2020/01/18 22:30 EST   -0.26   0.74    6  228    9  52.5  50.5 1015.1 15.4  1.013 -99.9 -99.99 -9.99
2020/01/18 22:36 EST   -0.24   0.77    7  224   11  52.5  50.5 1014.9 15.7  1.013 -99.9 -99.99 -9.99
2020/01/18 22:42 EST   -0.22   0.78    5  231   11  52.5  50.5 1014.8 15.6  1.013 -99.9 -99.99 -9.99
2020/01/18 22:48 EST   -0.19   0.81    7  236   10  52.5  50.5 1014.8 15.3  1.012 -99.9 -99.99 -9.99
2020/01/18 22:54 EST   -0.16   0.83    7  227   10  52.3  50.4 1014.6 14.8  1.012 -99.9 -99.99 -9.99
2020/01/18 23:00 EST   -0.13 -99.99 -999 -999 -999 -99.9 -99.9 -999.9 -9.9 -9.999 -99.9 -99.99 -9.99
2020/01/18 23:06 EST   -0.09 -99.99 -999 -999 -999 -99.9 -99.9 -999.9 -9.9 -9.999 -99.9 -99.99 -9.99
2020/01/18 23:12 EST   -0.05 -99.99 -999 -999 -999 -99.9 -99.9 -999.9 -9.9 -9.999 -99.9 -99.99 -9.99
2020/01/18 23:18 EST   -0.01 -99.99 -999 -999 -999 -99.9 -99.9 -999.9 -9.9 -9.999 -99.9 -99.99 -9.99
2020/01/18 23:24 EST    0.04 -99.99 -999 -999 -999 -99.9 -99.9 -999.9 -9.9 -9.999 -99.9 -99.99 -9.99
2020/01/18 23:30 EST    0.09 -99.99 -999 -999 -999 -99.9 -99.9 -999.9 -9.9 -9.999 -99.9 -99.99 -9.99
2020/01/18 23:36 EST    0.14 -99.99 -999 -999 -999 -99.9 -99.9 -999.9 -9.9 -9.999 -99.9 -99.99 -9.99
2020/01/18 23:42 EST    0.19 -99.99 -999 -999 -999 -99.9 -99.9 -999.9 -9.9 -9.999 -99.9 -99.99 -9.99
2020/01/18 23:48 EST    0.25 -99.99 -999 -999 -999 -99.9 -99.9 -999.9 -9.9 -9.999 -99.9 -99.99 -9.99
2020/01/18 23:54 EST    0.31 -99.99 -999 -999 -999 -99.9 -99.9 -999.9 -9.9 -9.999 -99.9 -99.99 -9.99
2020/01/19 00:00 EST    0.37 -99.99 -999 -999 -999 -99.9 -99.9 -999.9 -9.9 -9.999 -99.9 -99.99 -9.99
2020/01/19 00:06 EST    0.43 -99.99 -999 -999 -999 -99.9 -99.9 -999.9 -9.9 -9.999 -99.9 -99.99 -9.99
2020/01/19 00:12 EST    0.50 -99.99 -999 -999 -999 -99.9 -99.9 -999.9 -9.9 -9.999 -99.9 -99.99 -9.99
2020/01/19 00:18 EST    0.57 -99.99 -999 -999 -999 -99.9 -99.9 -999.9 -9.9 -9.999 -99.9 -99.99 -9.99
2020/01/19 00:24 EST    0.63 -99.99 -999 -999 -999 -99.9 -99.9 -999.9 -9.9 -9.999 -99.9 -99.99 -9.99
2020/01/19 00:30 EST    0.70 -99.99 -999 -999 -999 -99.9 -99.9 -999.9 -9.9 -9.999 -99.9 -99.99 -9.99
2020/01/19 00:36 EST    0.78 -99.99 -999 -999 -999 -99.9 -99.9 -999.9 -9.9 -9.999 -99.9 -99.99 -9.99
2020/01/19 00:42 EST    0.85 -99.99 -999 -999 -999 -99.9 -99.9 -999.9 -9.9 -9.999 -99.9 -99.99 -9.99
2020/01/19 00:48 EST    0.92 -99.99 -999 -999 -999 -99.9 -99.9 -999.9 -9.9 -9.999 -99.9 -99.99 -9.99
2020/01/19 00:54 EST    1.00 -99.99 -999 -999 -999 -99.9 -99.9 -999.9 -9.9 -9.999 -99.9 -99.99 -9.99
2020/01/19 01:00 EST    1.07 -99.99 -999 -999 -999 -99.9 -99.9 -999.9 -9.9 -9.999 -99.9 -99.99 -9.99
2020/01/19 01:06 EST    1.15 -99.99 -999 -999 -999 -99.9 -99.9 -999.9 -9.9 -9.999 -99.9 -99.99 -9.99
2020/01/19 01:12 EST    1.23 -99.99 -999 -999 -999 -99.9 -99.9 -999.9 -9.9 -9.999 -99.9 -99.99 -9.99
2020/01/19 01:18 EST    1.30 -99.99 -999 -999 -999 -99.9 -99.9 -999.9 -9.9 -9.999 -99.9 -99.99 -9.99
2020/01/19 01:24 EST    1.38 -99.99 -999 -999 -999 -99.9 -99.9 -999.9 -9.9 -9.999 -99.9 -99.99 -9.99
2020/01/19 01:30 EST    1.46 -99.99 -999 -999 -999 -99.9 -99.9 -999.9 -9.9 -9.999 -99.9 -99.99 -9.99
2020/01/19 01:36 EST    1.53 -99.99 -999 -999 -999 -99.9 -99.9 -999.9 -9.9 -9.999 -99.9 -99.99 -9.99
2020/01/19 01:42 EST    1.61 -99.99 -999 -999 -999 -99.9 -99.9 -999.9 -9.9 -9.999 -99.9 -99.99 -9.99
2020/01/19 01:48 EST    1.69 -99.99 -999 -999 -999 -99.9 -99.9 -999.9 -9.9 -9.999 -99.9 -99.99 -9.99
2020/01/19 01:54 EST    1.76 -99.99 -999 -999 -999 -99.9 -99.9 -999.9 -9.9 -9.999 -99.9 -99.99 -9.99
2020/01/19 02:00 EST    1.84 -99.99 -999 -999 -999 -99.9 -99.9 -999.9 -9.9 -9.999 -99.9 -99.99 -9.99
2020/01/19 02:06 EST    1.91 -99.99 -999 -999 -999 -99.9 -99.9 -999.9 -9.9 -9.999 -99.9 -99.99 -9.99
2020/01/19 02:12 EST    1.98 -99.99 -999 -999 -999 -99.9 -99.9 -999.9 -9.9 -9.999 -99.9 -99.99 -9.99
2020/01/19 02:18 EST    2.05 -99.99 -999 -999 -999 -99.9 -99.9 -999.9 -9.9 -9.999 -99.9 -99.99 -9.99
2020/01/19 02:24 EST    2.12 -99.99 -999 -999 -999 -99.9 -99.9 -999.9 -9.9 -9.999 -99.9 -99.99 -9.99
2020/01/19 02:30 EST    2.18 -99.99 -999 -999 -999 -99.9 -99.9 -999.9 -9.9 -9.999 -99.9 -99.99 -9.99
2020/01/19 02:36 EST    2.25 -99.99 -999 -999 -999 -99.9 -99.9 -999.9 -9.9 -9.999 -99.9 -99.99 -9.99
2020/01/19 02:42 EST    2.31 -99.99 -999 -999 -999 -99.9 -99.9 -999.9 -9.9 -9.999 -99.9 -99.99 -9.99
2020/01/19 02:48 EST    2.37 -99.99 -999 -999 -999 -99.9 -99.9 -999.9 -9.9 -9.999 -99.9 -99.99 -9.99
2020/01/19 02:54 EST    2.42 -99.99 -999 -999 -999 -99.9 -99.9 -999.9 -9.9 -9.999 -99.9 -99.99 -9.99
2020/01/19 03:00 EST    2.47 -99.99 -999 -999 -999 -99.9 -99.9 -999.9 -9.9 -9.999 -99.9 -99.99 -9.99
2020/01/19 03:06 EST    2.52 -99.99 -999 -999 -999 -99.9 -99.9 -999.9 -9.9 -9.999 -99.9 -99.99 -9.99
2020/01/19 03:12 EST    2.57 -99.99 -999 -999 -999 -99.9 -99.9 -999.9 -9.9 -9.999 -99.9 -99.99 -9.99
2020/01/19 03:18 EST    2.61 -99.99 -999 -999 -999 -99.9 -99.9 -999.9 -9.9 -9.999 -99.9 -99.99 -9.99
2020/01/19 03:24 EST    2.65 -99.99 -999 -999 -999 -99.9 -99.9 -999.9 -9.9 -9.999 -99.9 -99.99 -9.99
2020/01/19 03:30 EST    2.69 -99.99 -999 -999 -999 -99.9 -99.9 -999.9 -9.9 -9.999 -99.9 -99.99 -9.99
2020/01/19 03:36 EST    2.72 -99.99 -999 -999 -999 -99.9 -99.9 -999.9 -9.9 -9.999 -99.9 -99.99 -9.99
2020/01/19 03:42 EST    2.75 -99.99 -999 -999 -999 -99.9 -99.9 -999.9 -9.9 -9.999 -99.9 -99.99 -9.99
2020/01/19 03:48 EST    2.77 -99.99 -999 -999 -999 -99.9 -99.9 -999.9 -9.9 -9.999 -99.9 -99.99 -9.99
2020/01/19 03:54 EST    2.79 -99.99 -999 -999 -999 -99.9 -99.9 -999.9 -9.9 -9.999 -99.9 -99.99 -9.99
2020/01/19 04:00 EST    2.81 -99.99 -999 -999 -999 -99.9 -99.9 -999.9 -9.9 -9.999 -99.9 -99.99 -9.99
2020/01/19 04:06 EST    2.82 -99.99 -999 -999 -999 -99.9 -99.9 -999.9 -9.9 -9.999 -99.9 -99.99 -9.99
2020/01/19 04:12 EST    2.83 -99.99 -999 -999 -999 -99.9 -99.9 -999.9 -9.9 -9.999 -99.9 -99.99 -9.99
2020/01/19 04:18 EST    2.84 -99.99 -999 -999 -999 -99.9 -99.9 -999.9 -9.9 -9.999 -99.9 -99.99 -9.99
2020/01/19 04:24 EST    2.84 -99.99 -999 -999 -999 -99.9 -99.9 -999.9 -9.9 -9.999 -99.9 -99.99 -9.99
2020/01/19 04:30 EST    2.84 -99.99 -999 -999 -999 -99.9 -99.9 -999.9 -9.9 -9.999 -99.9 -99.99 -9.99
2020/01/19 04:36 EST    2.84 -99.99 -999 -999 -999 -99.9 -99.9 -999.9 -9.9 -9.999 -99.9 -99.99 -9.99
2020/01/19 04:42 EST    2.83 -99.99 -999 -999 -999 -99.9 -99.9 -999.9 -9.9 -9.999 -99.9 -99.99 -9.99
2020/01/19 04:48 EST    2.82 -99.99 -999 -999 -999 -99.9 -99.9 -999.9 -9.9 -9.999 -99.9 -99.99 -9.99
2020/01/19 04:54 EST    2.81 -99.99 -999 -999 -999 -99.9 -99.9 -999.9 -9.9 -9.999 -99.9 -99.99 -9.99
2020/01/19 05:00 EST    2.79 -99.99 -999 -999 -999 -99.9 -99.9 -999.9 -9.9 -9.999 -99.9 -99.99 -9.99
2020/01/19 05:06 EST    2.77 -99.99 -999 -999 -999 -99.9 -99.9 -999.9 -9.9 -9.999 -99.9 -99.99 -9.99
2020/01/19 05:12 EST    2.75 -99.99 -999 -999 -999 -99.9 -99.9 -999.9 -9.9 -9.999 -99.9 -99.99 -9.99